createdAt,value
2018-11-25T00:01:31.114Z,13.83
2018-11-25T00:03:59.445Z,13.94
2018-11-25T00:06:27.800Z,13.85
2018-11-25T00:08:56.087Z,13.75
2018-11-25T00:11:24.385Z,13.54
2018-11-25T00:13:52.780Z,13.40
2018-11-25T00:16:21.080Z,13.17
2018-11-25T00:18:49.392Z,12.54
2018-11-25T00:21:17.754Z,12.41
2018-11-25T00:23:46.125Z,12.70
2018-11-25T00:26:14.410Z,12.24
2018-11-25T00:28:42.753Z,12.62
2018-11-25T00:31:11.168Z,12.52
2018-11-25T00:33:39.632Z,11.95
2018-11-25T00:36:07.957Z,12.23
2018-11-25T00:38:36.254Z,12.03
2018-11-25T00:41:04.868Z,12.35
2018-11-25T00:43:33.214Z,12.10
2018-11-25T00:46:01.547Z,12.14
2018-11-25T00:48:29.882Z,12.01
2018-11-25T00:50:58.158Z,11.99
2018-11-25T00:53:26.521Z,11.98
2018-11-25T00:55:54.773Z,11.85
2018-11-25T00:58:23.093Z,11.75
2018-11-25T01:00:51.471Z,11.69
2018-11-25T01:03:19.760Z,11.73
2018-11-25T01:05:48.019Z,11.58
2018-11-25T01:08:16.295Z,11.68
2018-11-25T01:10:44.794Z,11.96
2018-11-25T01:13:13.085Z,11.91
2018-11-25T01:15:41.884Z,11.83
2018-11-25T01:18:10.147Z,12.03
2018-11-25T01:20:38.369Z,12.01
2018-11-25T01:23:06.706Z,12.14
2018-11-25T01:25:35.095Z,12.12
2018-11-25T01:28:03.464Z,12.08
2018-11-25T01:30:31.889Z,12.06
2018-11-25T01:33:00.209Z,11.86
2018-11-25T01:35:28.589Z,11.76
2018-11-25T01:37:57.181Z,11.72
2018-11-25T01:40:25.529Z,11.49
2018-11-25T01:42:53.837Z,11.55
2018-11-25T01:45:22.244Z,11.43
2018-11-25T01:47:50.576Z,11.45
2018-11-25T01:50:19.090Z,11.38
2018-11-25T01:52:47.859Z,10.82
2018-11-25T01:55:17.354Z,11.20
2018-11-25T01:57:45.640Z,10.75
2018-11-25T02:00:17.906Z,10.61
2018-11-25T02:02:46.327Z,10.96
2018-11-25T02:05:14.753Z,10.88
2018-11-25T02:07:43.362Z,10.42
2018-11-25T02:10:16.307Z,10.85
2018-11-25T02:12:44.742Z,10.69
2018-11-25T02:15:15.114Z,10.68
2018-11-25T02:17:43.619Z,10.79
2018-11-25T02:20:14.270Z,10.42
2018-11-25T02:22:42.762Z,10.47
2018-11-25T02:25:11.224Z,10.43
2018-11-25T02:27:39.573Z,10.44
2018-11-25T02:30:10.743Z,10.39
2018-11-25T02:32:39.126Z,10.48
2018-11-25T02:35:09.249Z,10.53
2018-11-25T02:37:38.637Z,10.63
2018-11-25T02:40:11.806Z,10.49
2018-11-25T02:42:40.134Z,10.45
2018-11-25T02:45:14.033Z,10.51
2018-11-25T02:47:42.480Z,10.40
2018-11-25T02:50:27.917Z,10.40
2018-11-25T02:52:58.348Z,10.50
2018-11-25T02:55:27.224Z,10.45
2018-11-25T02:57:55.585Z,10.51
2018-11-25T03:00:23.986Z,10.52
2018-11-25T03:02:52.281Z,10.43
2018-11-25T03:05:20.679Z,10.36
2018-11-25T03:07:49.125Z,10.34
2018-11-25T03:10:17.420Z,10.22
2018-11-25T03:12:45.865Z,10.24
2018-11-25T03:15:16.712Z,10.09
2018-11-25T03:17:45.185Z,9.85
2018-11-25T03:20:15.636Z,9.66
2018-11-25T03:22:43.950Z,9.60
2018-11-25T03:25:14.431Z,9.72
2018-11-25T03:27:42.701Z,9.81
2018-11-25T03:30:16.026Z,9.99
2018-11-25T03:32:44.985Z,9.94
2018-11-25T03:35:14.187Z,9.95
2018-11-25T03:37:42.537Z,9.88
2018-11-25T03:40:12.791Z,9.89
2018-11-25T03:42:41.150Z,9.69
2018-11-25T03:45:16.705Z,9.90
2018-11-25T03:47:45.185Z,9.84
2018-11-25T03:50:14.377Z,9.71
2018-11-25T03:52:44.044Z,9.59
2018-11-25T03:55:13.375Z,9.56
2018-11-25T03:57:48.353Z,8.86
2018-11-25T04:00:23.577Z,8.74
2018-11-25T04:02:53.173Z,8.64
2018-11-25T04:05:21.549Z,8.69
2018-11-25T04:07:49.898Z,8.94
2018-11-25T04:10:19.121Z,8.84
2018-11-25T04:12:47.585Z,9.17
2018-11-25T04:15:16.832Z,9.21
2018-11-25T04:17:45.413Z,9.17
2018-11-25T04:20:15.812Z,9.25
2018-11-25T04:22:44.132Z,9.33
2018-11-25T04:25:13.033Z,9.38
2018-11-25T04:27:41.340Z,9.33
2018-11-25T04:30:11.883Z,9.39
2018-11-25T04:32:40.198Z,9.40
2018-11-25T04:35:09.856Z,9.34
2018-11-25T04:37:38.225Z,9.27
2018-11-25T04:40:08.866Z,9.24
2018-11-25T04:42:37.144Z,9.24
2018-11-25T04:45:06.112Z,9.22
2018-11-25T04:47:34.418Z,9.26
2018-11-25T04:50:02.920Z,9.21
2018-11-25T04:52:31.438Z,9.22
2018-11-25T04:54:59.975Z,9.13
2018-11-25T04:57:28.406Z,9.16
2018-11-25T04:59:56.781Z,9.10
2018-11-25T05:02:25.327Z,9.13
2018-11-25T05:04:53.611Z,9.11
2018-11-25T05:07:21.958Z,9.11
2018-11-25T05:09:50.323Z,9.13
2018-11-25T05:12:18.693Z,9.06
2018-11-25T05:14:47.007Z,8.95
2018-11-25T05:17:15.353Z,8.90
2018-11-25T05:19:43.708Z,8.98
2018-11-25T05:22:12.000Z,8.97
2018-11-25T05:24:40.365Z,9.05
2018-11-25T05:27:08.770Z,8.70
2018-11-25T05:29:37.066Z,8.80
2018-11-25T05:32:05.966Z,8.76
2018-11-25T05:34:34.381Z,8.76
2018-11-25T05:37:02.746Z,8.70
2018-11-25T05:39:31.095Z,8.76
2018-11-25T05:41:59.447Z,8.76
2018-11-25T05:44:27.711Z,8.79
2018-11-25T05:46:56.140Z,8.70
2018-11-25T05:49:24.540Z,8.73
2018-11-25T05:51:52.838Z,8.53
2018-11-25T05:54:21.277Z,8.59
2018-11-25T05:56:49.689Z,8.63
2018-11-25T05:59:18.015Z,8.59
2018-11-25T06:01:46.357Z,8.53
2018-11-25T06:04:14.750Z,8.66
2018-11-25T06:06:43.196Z,8.55
2018-11-25T06:09:11.708Z,8.55
2018-11-25T06:11:40.606Z,8.56
2018-11-25T06:14:08.880Z,8.54
2018-11-25T06:16:37.797Z,8.37
2018-11-25T06:19:06.135Z,8.46
2018-11-25T06:21:34.439Z,8.55
2018-11-25T06:24:02.803Z,8.37
2018-11-25T06:26:31.096Z,8.39
2018-11-25T06:28:59.401Z,8.34
2018-11-25T06:31:28.132Z,8.38
2018-11-25T06:33:56.117Z,8.45
2018-11-25T06:36:24.481Z,8.51
2018-11-25T06:38:53.161Z,8.27
2018-11-25T06:41:22.049Z,8.42
2018-11-25T06:43:50.376Z,8.37
2018-11-25T06:46:18.928Z,8.42
2018-11-25T06:48:54.586Z,8.44
2018-11-25T06:51:15.915Z,8.46
2018-11-25T06:53:44.198Z,8.37
2018-11-25T06:56:12.501Z,8.35
2018-11-25T06:58:40.823Z,8.29
2018-11-25T07:01:09.391Z,8.41
2018-11-25T07:03:37.986Z,8.45
2018-11-25T07:06:06.477Z,8.22
2018-11-25T07:08:35.206Z,8.21
2018-11-25T07:11:03.533Z,8.38
2018-11-25T07:13:31.822Z,8.28
2018-11-25T07:16:00.159Z,8.39
2018-11-25T07:18:28.627Z,8.36
2018-11-25T07:20:57.070Z,8.39
2018-11-25T07:23:25.508Z,8.58
2018-11-25T07:25:54.028Z,8.51
2018-11-25T07:28:22.479Z,8.57
2018-11-25T07:30:50.918Z,8.49
2018-11-25T07:33:19.225Z,8.64
2018-11-25T07:35:47.485Z,8.73
2018-11-25T07:38:15.883Z,8.91
2018-11-25T07:40:44.512Z,8.76
2018-11-25T07:43:13.147Z,8.92
2018-11-25T07:45:41.831Z,8.73
2018-11-25T07:48:10.219Z,8.27
2018-11-25T07:50:38.535Z,8.59
2018-11-25T07:53:06.858Z,8.44
2018-11-25T07:55:35.139Z,8.92
2018-11-25T07:58:03.601Z,9.14
2018-11-25T08:00:31.880Z,9.11
2018-11-25T08:03:00.153Z,9.21
2018-11-25T08:05:28.605Z,9.20
2018-11-25T08:07:56.897Z,9.18
2018-11-25T08:10:25.213Z,9.37
2018-11-25T08:12:53.532Z,9.37
2018-11-25T08:15:21.814Z,9.47
2018-11-25T08:17:50.227Z,9.44
2018-11-25T08:20:20.550Z,9.94
2018-11-25T08:22:49.393Z,10.16
2018-11-25T08:25:20.519Z,10.18
2018-11-25T08:27:49.001Z,10.38
2018-11-25T08:30:21.065Z,10.55
2018-11-25T08:32:49.701Z,10.60
2018-11-25T08:35:18.385Z,10.80
2018-11-25T08:37:46.872Z,10.71
2018-11-25T08:40:18.057Z,10.33
2018-11-25T08:42:46.409Z,10.48
2018-11-25T08:45:15.376Z,10.69
2018-11-25T08:47:44.222Z,10.92
2018-11-25T08:50:14.477Z,10.78
2018-11-25T08:52:43.900Z,11.13
2018-11-25T08:55:14.521Z,11.13
2018-11-25T08:57:42.933Z,10.89
2018-11-25T09:00:14.479Z,10.43
2018-11-25T09:02:42.933Z,10.84
2018-11-25T09:05:12.603Z,11.21
2018-11-25T09:07:41.132Z,10.72
2018-11-25T09:10:17.321Z,11.00
2018-11-25T09:12:47.384Z,11.04
2018-11-25T09:15:19.617Z,11.41
2018-11-25T09:17:47.967Z,11.61
2018-11-25T09:20:17.363Z,11.74
2018-11-25T09:22:45.720Z,11.84
2018-11-25T09:25:18.230Z,12.36
2018-11-25T09:27:46.506Z,12.67
2018-11-25T09:30:18.847Z,13.04
2018-11-25T09:32:47.140Z,13.27
2018-11-25T09:35:15.641Z,13.50
2018-11-25T09:37:44.075Z,14.05
2018-11-25T09:40:17.461Z,14.04
2018-11-25T09:42:45.759Z,14.51
2018-11-25T09:45:15.963Z,14.74
2018-11-25T09:47:44.436Z,14.91
2018-11-25T09:50:14.831Z,14.68
2018-11-25T09:52:43.308Z,14.73
2018-11-25T09:55:15.204Z,14.81
2018-11-25T09:57:45.116Z,14.56
2018-11-25T10:00:17.812Z,14.34
2018-11-25T10:02:46.131Z,14.04
2018-11-25T10:05:14.448Z,13.64
2018-11-25T10:07:43.589Z,13.89
2018-11-25T10:10:15.796Z,13.96
2018-11-25T10:12:44.133Z,13.95
2018-11-25T10:15:13.437Z,14.05
2018-11-25T10:17:41.794Z,14.02
2018-11-25T10:20:11.557Z,14.48
2018-11-25T10:22:39.830Z,14.64
2018-11-25T10:25:09.940Z,14.46
2018-11-25T10:27:38.269Z,14.76
2018-11-25T10:30:13.240Z,15.08
2018-11-25T10:32:42.412Z,15.46
2018-11-25T10:35:10.530Z,15.52
2018-11-25T10:37:38.966Z,15.64
2018-11-25T10:40:12.606Z,15.63
2018-11-25T10:42:41.036Z,16.10
2018-11-25T10:45:13.097Z,16.22
2018-11-25T10:47:41.471Z,16.23
2018-11-25T10:50:13.086Z,16.39
2018-11-25T10:52:41.484Z,16.33
2018-11-25T10:55:10.809Z,16.81
2018-11-25T10:57:39.616Z,16.80
2018-11-25T11:00:17.295Z,16.81
2018-11-25T11:02:45.834Z,17.19
2018-11-25T11:05:19.472Z,16.84
2018-11-25T11:07:47.953Z,16.31
2018-11-25T11:10:16.277Z,16.43
2018-11-25T11:12:44.701Z,16.76
2018-11-25T11:15:13.143Z,16.99
2018-11-25T11:17:41.473Z,17.50
2018-11-25T11:20:10.822Z,17.76
2018-11-25T11:22:39.237Z,17.75
2018-11-25T11:25:08.989Z,18.09
2018-11-25T11:27:37.533Z,17.93
2018-11-25T11:30:08.867Z,18.36
2018-11-25T11:32:37.444Z,18.68
2018-11-25T11:35:07.310Z,18.63
2018-11-25T11:37:36.331Z,18.73
2018-11-25T11:40:06.957Z,19.73
2018-11-25T11:42:35.325Z,20.50
2018-11-25T11:45:04.015Z,21.00
2018-11-25T11:47:32.488Z,21.60
2018-11-25T11:50:00.891Z,22.28
2018-11-25T11:52:29.651Z,22.93
2018-11-25T11:54:58.082Z,23.17
2018-11-25T11:57:26.610Z,24.21
2018-11-25T11:59:55.081Z,23.97
2018-11-25T12:02:23.478Z,24.24
2018-11-25T12:04:51.814Z,24.18
2018-11-25T12:07:20.170Z,24.87
2018-11-25T12:09:48.524Z,25.51
2018-11-25T12:12:16.896Z,25.76
2018-11-25T12:14:45.240Z,22.41
2018-11-25T12:17:13.701Z,23.11
2018-11-25T12:19:42.021Z,23.52
2018-11-25T12:22:10.423Z,24.24
2018-11-25T12:24:38.848Z,26.09
2018-11-25T12:27:07.273Z,25.89
2018-11-25T12:29:35.705Z,26.79
2018-11-25T12:32:04.024Z,27.78
2018-11-25T12:34:32.483Z,28.20
2018-11-25T12:37:00.936Z,28.61
2018-11-25T12:39:29.246Z,29.68
2018-11-25T12:41:57.526Z,29.70
2018-11-25T12:44:29.322Z,28.78
2018-11-25T12:46:54.174Z,29.08
2018-11-25T12:49:22.454Z,29.73
2018-11-25T12:51:50.790Z,30.53
2018-11-25T12:54:19.125Z,30.87
2018-11-25T12:56:51.788Z,30.89
2018-11-25T12:59:15.952Z,30.96
2018-11-25T13:01:44.344Z,30.78
2018-11-25T13:04:13.334Z,31.25
2018-11-25T13:06:41.749Z,29.79
2018-11-25T13:09:10.216Z,29.90
2018-11-25T13:11:38.569Z,30.07
2018-11-25T13:14:06.997Z,29.99
2018-11-25T13:16:35.335Z,30.06
2018-11-25T13:19:03.651Z,29.41
2018-11-25T13:21:32.073Z,29.96
2018-11-25T13:24:00.410Z,29.51
2018-11-25T13:26:28.760Z,29.21
2018-11-25T13:28:57.039Z,29.44
2018-11-25T13:31:25.435Z,28.99
2018-11-25T13:33:53.775Z,28.48
2018-11-25T13:36:22.121Z,27.58
2018-11-25T13:38:50.479Z,27.62
2018-11-25T13:41:18.850Z,27.45
2018-11-25T13:43:47.228Z,27.10
2018-11-25T13:46:15.533Z,27.28
2018-11-25T13:48:44.262Z,27.74
2018-11-25T13:51:12.546Z,27.58
2018-11-25T13:53:40.948Z,27.37
2018-11-25T13:56:09.351Z,28.30
2018-11-25T13:58:37.720Z,27.80
2018-11-25T14:01:06.498Z,27.83
2018-11-25T14:03:37.654Z,28.14
2018-11-25T14:06:09.731Z,27.79
2018-11-25T14:08:38.047Z,27.82
2018-11-25T14:11:09.102Z,27.20
2018-11-25T14:13:37.448Z,26.19
2018-11-25T14:16:07.908Z,26.22
2018-11-25T14:18:36.196Z,26.09
2018-11-25T14:21:05.672Z,24.52
2018-11-25T14:23:34.008Z,23.80
2018-11-25T14:26:09.075Z,22.98
2018-11-25T14:28:37.382Z,22.07
2018-11-25T14:31:06.092Z,21.81
2018-11-25T14:33:34.459Z,21.58
2018-11-25T14:36:03.068Z,20.83
2018-11-25T14:38:31.354Z,21.53
2018-11-25T14:40:59.708Z,21.61
2018-11-25T14:43:28.013Z,21.87
2018-11-25T14:45:56.438Z,21.51
2018-11-25T14:48:24.874Z,20.89
2018-11-25T14:50:53.242Z,19.77
2018-11-25T14:53:21.610Z,18.74
2018-11-25T14:55:49.879Z,18.02
2018-11-25T14:58:18.236Z,17.35
2018-11-25T15:00:46.755Z,17.13
2018-11-25T15:03:15.772Z,16.83
2018-11-25T15:05:45.616Z,16.47
2018-11-25T15:08:17.590Z,16.30
2018-11-25T15:10:45.973Z,16.24
2018-11-25T15:13:14.816Z,15.91
2018-11-25T15:15:43.296Z,15.82
2018-11-25T15:18:12.086Z,15.53
2018-11-25T15:20:40.420Z,15.24
2018-11-25T15:23:12.345Z,14.74
2018-11-25T15:25:47.416Z,14.02
2018-11-25T15:28:15.812Z,14.11
2018-11-25T15:30:47.616Z,13.97
2018-11-25T15:33:16.130Z,13.90
2018-11-25T15:35:44.483Z,13.58
2018-11-25T15:38:13.058Z,13.50
2018-11-25T15:40:41.945Z,13.44
2018-11-25T15:43:11.476Z,13.22
2018-11-25T15:45:40.011Z,13.09
2018-11-25T15:48:12.917Z,12.62
2018-11-25T15:50:41.341Z,12.36
2018-11-25T15:53:10.762Z,12.02
2018-11-25T15:55:39.095Z,12.15
2018-11-25T15:58:08.258Z,11.98
2018-11-25T16:00:36.630Z,12.02
2018-11-25T16:03:07.188Z,11.85
2018-11-25T16:05:35.596Z,11.68
2018-11-25T16:08:04.512Z,11.68
2018-11-25T16:10:32.302Z,11.61
2018-11-25T16:13:00.611Z,11.78
2018-11-25T16:15:29.264Z,11.26
2018-11-25T16:17:57.618Z,11.50
2018-11-25T16:20:28.050Z,11.53
2018-11-25T16:22:59.789Z,11.69
2018-11-25T16:25:38.885Z,11.71
2018-11-25T16:28:13.024Z,12.01
2018-11-25T16:30:41.456Z,12.13
2018-11-25T16:33:09.822Z,12.20
2018-11-25T16:35:38.198Z,12.57
2018-11-25T16:38:07.485Z,12.36
2018-11-25T16:40:36.398Z,12.01
2018-11-25T16:43:04.925Z,12.37
2018-11-25T16:45:34.553Z,12.13
2018-11-25T16:48:02.845Z,12.57
2018-11-25T16:50:31.251Z,12.59
2018-11-25T16:53:00.084Z,12.71
2018-11-25T16:55:28.490Z,12.77
2018-11-25T16:57:56.833Z,12.76
2018-11-25T17:00:25.261Z,13.12
2018-11-25T17:02:53.630Z,13.09
2018-11-25T17:05:30.159Z,13.20
2018-11-25T17:08:36.272Z,13.16
2018-11-25T17:11:04.648Z,13.12
2018-11-25T17:13:33.243Z,13.12
2018-11-25T17:16:02.356Z,12.88
2018-11-25T17:18:30.662Z,12.97
2018-11-25T17:20:58.924Z,13.28
2018-11-25T17:23:27.253Z,13.32
2018-11-25T17:25:55.845Z,13.29
2018-11-25T17:28:24.154Z,13.43
2018-11-25T17:30:52.494Z,13.51
2018-11-25T17:33:21.823Z,13.54
2018-11-25T17:35:49.245Z,13.57
2018-11-25T17:38:17.712Z,13.60
2018-11-25T17:40:46.411Z,13.35
2018-11-25T17:43:19.211Z,13.59
2018-11-25T17:45:47.726Z,13.57
2018-11-25T17:48:16.132Z,13.59
2018-11-25T17:50:44.419Z,13.66
2018-11-25T17:53:20.463Z,13.43
2018-11-25T17:55:41.393Z,13.49
2018-11-25T17:58:09.737Z,13.28
2018-11-25T18:00:43.804Z,13.35
2018-11-25T18:03:29.501Z,13.46
2018-11-25T18:05:58.057Z,13.26
2018-11-25T18:08:26.359Z,13.34
2018-11-25T18:10:54.904Z,13.40
2018-11-25T18:13:25.540Z,13.04
2018-11-25T18:15:55.263Z,12.79
2018-11-25T18:18:27.755Z,12.80
2018-11-25T18:20:58.488Z,12.91
2018-11-25T18:23:27.010Z,13.18
2018-11-25T18:25:55.310Z,13.30
2018-11-25T18:28:23.868Z,13.35
2018-11-25T18:30:52.509Z,13.24
2018-11-25T18:33:20.830Z,13.23
2018-11-25T18:35:49.159Z,13.36
2018-11-25T18:38:17.516Z,13.37
2018-11-25T18:40:45.922Z,13.04
2018-11-25T18:43:14.232Z,13.38
2018-11-25T18:45:42.678Z,13.41
2018-11-25T18:48:12.612Z,13.20
2018-11-25T18:50:41.114Z,13.18
2018-11-25T18:53:11.113Z,13.01
2018-11-25T18:55:38.330Z,13.06
2018-11-25T18:58:07.003Z,13.20
2018-11-25T19:00:37.512Z,13.24
2018-11-25T19:03:06.166Z,13.18
2018-11-25T19:05:34.454Z,13.35
2018-11-25T19:08:02.851Z,13.09
2018-11-25T19:10:31.338Z,13.28
2018-11-25T19:12:59.650Z,13.23
2018-11-25T19:15:28.092Z,12.76
2018-11-25T19:17:56.377Z,12.88
2018-11-25T19:20:26.958Z,13.03
2018-11-25T19:22:55.909Z,13.34
2018-11-25T19:25:24.240Z,13.09
2018-11-25T19:27:53.181Z,13.05
2018-11-25T19:30:26.302Z,13.25
2018-11-25T19:32:50.548Z,13.22
2018-11-25T19:35:20.481Z,13.08
2018-11-25T19:37:49.890Z,13.24
2018-11-25T19:40:21.901Z,13.21
2018-11-25T19:42:50.319Z,13.45
2018-11-25T19:45:23.180Z,13.42
2018-11-25T19:47:51.699Z,13.49
2018-11-25T19:50:22.388Z,13.48
2018-11-25T19:52:50.723Z,13.49
2018-11-25T19:55:19.155Z,13.40
2018-11-25T19:57:47.616Z,13.27
2018-11-25T20:00:23.960Z,13.37
2018-11-25T20:02:52.358Z,13.26
2018-11-25T20:05:20.819Z,13.55
2018-11-25T20:07:49.289Z,13.12
2018-11-25T20:10:21.856Z,13.30
2018-11-25T20:12:51.237Z,12.90
2018-11-25T20:15:20.162Z,13.13
2018-11-25T20:17:54.184Z,12.92
2018-11-25T20:20:20.230Z,12.79
2018-11-25T20:22:48.924Z,13.22
2018-11-25T20:25:18.009Z,13.38
2018-11-25T20:27:48.426Z,13.43
2018-11-25T20:30:20.089Z,13.54
2018-11-25T20:32:53.742Z,13.61
2018-11-25T20:35:22.235Z,13.68
2018-11-25T20:37:56.023Z,13.74
2018-11-25T20:40:24.354Z,13.68
2018-11-25T20:42:52.705Z,13.79
2018-11-25T20:45:27.315Z,13.80
2018-11-25T20:47:56.926Z,13.71
2018-11-25T20:50:25.450Z,13.67
2018-11-25T20:52:59.157Z,13.76
2018-11-25T20:55:27.458Z,13.51
2018-11-25T20:57:55.921Z,13.56
2018-11-25T21:00:25.848Z,13.44
2018-11-25T21:02:54.293Z,13.24
2018-11-25T21:05:23.796Z,13.41
2018-11-25T21:07:51.563Z,13.42
2018-11-25T21:10:20.688Z,13.26
2018-11-25T21:12:51.467Z,13.12
2018-11-25T21:15:19.952Z,12.79
2018-11-25T21:17:48.693Z,12.63
2018-11-25T21:20:19.579Z,12.97
2018-11-25T21:22:47.991Z,12.87
2018-11-25T21:25:17.551Z,13.12
2018-11-25T21:27:46.265Z,12.50
2018-11-25T21:30:21.874Z,12.82
2018-11-25T21:32:51.498Z,13.05
2018-11-25T21:35:20.042Z,13.05
2018-11-25T21:37:51.807Z,12.91
2018-11-25T21:40:21.558Z,12.93
2018-11-25T21:42:50.049Z,12.93
2018-11-25T21:45:19.468Z,12.79
2018-11-25T21:47:48.337Z,13.09
2018-11-25T21:50:17.937Z,12.84
2018-11-25T21:52:46.421Z,12.45
2018-11-25T21:55:16.065Z,12.81
2018-11-25T21:57:44.560Z,13.01
2018-11-25T22:00:17.218Z,13.02
2018-11-25T22:02:45.577Z,12.94
2018-11-25T22:05:15.494Z,13.09
2018-11-25T22:07:43.979Z,13.09
2018-11-25T22:10:21.262Z,12.86
2018-11-25T22:15:40.640Z,12.98
2018-11-25T22:18:09.041Z,13.00
2018-11-25T22:20:37.401Z,13.03
2018-11-25T22:23:06.580Z,13.07
2018-11-25T22:25:35.112Z,12.60
2018-11-25T22:28:03.487Z,12.92
2018-11-25T22:30:32.077Z,13.01
2018-11-25T22:33:00.419Z,13.09
2018-11-25T22:35:28.970Z,13.23
2018-11-25T22:37:57.359Z,13.01
2018-11-25T22:40:25.806Z,12.94
2018-11-25T22:42:54.236Z,12.93
2018-11-25T22:45:23.910Z,12.97
2018-11-25T22:47:52.338Z,13.16
2018-11-25T22:50:21.682Z,13.29
2018-11-25T22:52:50.764Z,12.95
2018-11-25T22:55:23.533Z,13.16
2018-11-25T22:57:52.164Z,13.19
2018-11-25T23:00:30.717Z,12.98
2018-11-25T23:02:59.170Z,13.01
2018-11-25T23:05:38.787Z,13.21
2018-11-25T23:08:07.027Z,12.73
2018-11-25T23:10:36.328Z,13.03
2018-11-25T23:13:04.699Z,13.09
2018-11-25T23:15:33.076Z,13.00
2018-11-25T23:18:01.462Z,13.21
2018-11-25T23:20:29.801Z,13.31
2018-11-25T23:22:58.334Z,13.02
2018-11-25T23:25:26.699Z,13.08
2018-11-25T23:27:55.037Z,13.21
2018-11-25T23:30:23.487Z,13.26
2018-11-25T23:32:51.803Z,13.07
2018-11-25T23:35:21.509Z,13.20
2018-11-25T23:37:49.852Z,13.20
2018-11-25T23:40:18.109Z,13.12
2018-11-25T23:42:46.779Z,13.11
2018-11-25T23:45:15.877Z,13.13
2018-11-25T23:47:44.210Z,13.07
2018-11-25T23:50:13.762Z,13.27
2018-11-25T23:52:42.928Z,13.24
2018-11-25T23:55:12.429Z,13.13
2018-11-25T23:57:41.260Z,13.00
